sensor_id;sensor_type;location;lat;lon;timestamp;temperature;humidity
31725;DHT22;18306;40.960;14.836;2022-09-12T00:00:21;19.20;99.90
31725;DHT22;18306;40.960;14.836;2022-09-12T00:02:53;19.20;99.90
31725;DHT22;18306;40.960;14.836;2022-09-12T00:05:21;19.20;99.90
31725;DHT22;18306;40.960;14.836;2022-09-12T00:07:48;19.20;99.90
31725;DHT22;18306;40.960;14.836;2022-09-12T00:10:16;19.20;99.90
31725;DHT22;18306;40.960;14.836;2022-09-12T00:12:43;19.20;99.90
31725;DHT22;18306;40.960;14.836;2022-09-12T00:15:11;19.20;99.90
31725;DHT22;18306;40.960;14.836;2022-09-12T00:17:38;19.20;99.90
31725;DHT22;18306;40.960;14.836;2022-09-12T00:20:08;19.20;99.90
31725;DHT22;18306;40.960;14.836;2022-09-12T00:22:39;19.10;99.90
31725;DHT22;18306;40.960;14.836;2022-09-12T00:25:06;19.10;99.90
31725;DHT22;18306;40.960;14.836;2022-09-12T00:27:33;19.20;99.90
31725;DHT22;18306;40.960;14.836;2022-09-12T00:30:00;19.10;99.90
31725;DHT22;18306;40.960;14.836;2022-09-12T00:32:28;19.00;99.90
31725;DHT22;18306;40.960;14.836;2022-09-12T00:34:55;18.90;99.90
31725;DHT22;18306;40.960;14.836;2022-09-12T00:37:22;18.90;99.90
31725;DHT22;18306;40.960;14.836;2022-09-12T00:39:52;18.90;99.90
31725;DHT22;18306;40.960;14.836;2022-09-12T00:42:28;18.90;99.90
31725;DHT22;18306;40.960;14.836;2022-09-12T00:44:55;18.90;99.90
31725;DHT22;18306;40.960;14.836;2022-09-12T00:47:30;18.90;99.90
31725;DHT22;18306;40.960;14.836;2022-09-12T00:50:06;19.10;99.90
31725;DHT22;18306;40.960;14.836;2022-09-12T00:52:49;18.80;99.90
31725;DHT22;18306;40.960;14.836;2022-09-12T00:55:25;18.70;99.90
31725;DHT22;18306;40.960;14.836;2022-09-12T01:00:31;18.60;99.90
31725;DHT22;18306;40.960;14.836;2022-09-12T01:03:09;18.50;99.90
31725;DHT22;18306;40.960;14.836;2022-09-12T01:05:42;18.30;99.90
31725;DHT22;18306;40.960;14.836;2022-09-12T01:08:10;18.40;99.90
31725;DHT22;18306;40.960;14.836;2022-09-12T01:10:39;18.30;99.90
31725;DHT22;18306;40.960;14.836;2022-09-12T01:13:08;18.40;99.90
31725;DHT22;18306;40.960;14.836;2022-09-12T01:15:39;18.30;99.90
31725;DHT22;18306;40.960;14.836;2022-09-12T01:35:25;18.10;99.90
31725;DHT22;18306;40.960;14.836;2022-09-12T01:38:24;18.00;99.90
31725;DHT22;18306;40.960;14.836;2022-09-12T01:43:47;17.90;99.90
31725;DHT22;18306;40.960;14.836;2022-09-12T01:46:39;17.80;99.90
31725;DHT22;18306;40.960;14.836;2022-09-12T01:49:26;17.70;99.90
31725;DHT22;18306;40.960;14.836;2022-09-12T01:52:02;17.60;99.90
31725;DHT22;18306;40.960;14.836;2022-09-12T01:55:00;17.60;99.90
31725;DHT22;18306;40.960;14.836;2022-09-12T01:57:44;17.50;99.90
31725;DHT22;18306;40.960;14.836;2022-09-12T02:00:13;17.40;99.90
31725;DHT22;18306;40.960;14.836;2022-09-12T02:05:38;17.50;99.90
31725;DHT22;18306;40.960;14.836;2022-09-12T02:08:10;17.50;99.90
31725;DHT22;18306;40.960;14.836;2022-09-12T02:11:13;17.50;99.90
31725;DHT22;18306;40.960;14.836;2022-09-12T02:16:20;17.60;99.90
31725;DHT22;18306;40.960;14.836;2022-09-12T02:18:58;17.50;99.90
31725;DHT22;18306;40.960;14.836;2022-09-12T02:21:29;17.50;99.90
31725;DHT22;18306;40.960;14.836;2022-09-12T02:24:02;17.40;99.90
31725;DHT22;18306;40.960;14.836;2022-09-12T02:26:43;17.20;99.90
31725;DHT22;18306;40.960;14.836;2022-09-12T02:29:13;17.10;99.90
31725;DHT22;18306;40.960;14.836;2022-09-12T02:31:56;17.00;99.90
31725;DHT22;18306;40.960;14.836;2022-09-12T02:34:44;17.00;99.90
31725;DHT22;18306;40.960;14.836;2022-09-12T02:37:56;16.90;99.90
31725;DHT22;18306;40.960;14.836;2022-09-12T02:40:25;16.90;99.90
31725;DHT22;18306;40.960;14.836;2022-09-12T02:42:53;16.80;99.90
31725;DHT22;18306;40.960;14.836;2022-09-12T02:45:20;16.80;99.90
31725;DHT22;18306;40.960;14.836;2022-09-12T02:50:16;16.80;99.90
31725;DHT22;18306;40.960;14.836;2022-09-12T02:52:43;16.70;99.90
31725;DHT22;18306;40.960;14.836;2022-09-12T02:55:11;16.70;99.90
31725;DHT22;18306;40.960;14.836;2022-09-12T02:57:39;16.70;99.90
31725;DHT22;18306;40.960;14.836;2022-09-12T03:00:07;16.60;99.90
31725;DHT22;18306;40.960;14.836;2022-09-12T03:03:16;16.50;99.90
31725;DHT22;18306;40.960;14.836;2022-09-12T03:06:08;16.60;99.90
31725;DHT22;18306;40.960;14.836;2022-09-12T03:20:02;16.40;99.90
31725;DHT22;18306;40.960;14.836;2022-09-12T03:22:45;16.40;99.90
31725;DHT22;18306;40.960;14.836;2022-09-12T03:28:19;16.20;99.90
31725;DHT22;18306;40.960;14.836;2022-09-12T03:30:49;16.10;99.90
31725;DHT22;18306;40.960;14.836;2022-09-12T03:33:21;16.20;99.90
31725;DHT22;18306;40.960;14.836;2022-09-12T03:35:50;16.10;99.90
31725;DHT22;18306;40.960;14.836;2022-09-12T03:38:18;16.10;99.90
31725;DHT22;18306;40.960;14.836;2022-09-12T03:40:45;16.20;99.90
31725;DHT22;18306;40.960;14.836;2022-09-12T03:43:12;16.20;99.90
31725;DHT22;18306;40.960;14.836;2022-09-12T03:45:39;16.30;99.90
31725;DHT22;18306;40.960;14.836;2022-09-12T03:48:07;16.40;99.90
31725;DHT22;18306;40.960;14.836;2022-09-12T03:50:34;16.50;99.90
31725;DHT22;18306;40.960;14.836;2022-09-12T03:53:02;16.50;99.90
31725;DHT22;18306;40.960;14.836;2022-09-12T03:55:29;16.30;99.90
31725;DHT22;18306;40.960;14.836;2022-09-12T03:57:56;16.10;99.90
31725;DHT22;18306;40.960;14.836;2022-09-12T04:00:24;16.10;99.90
31725;DHT22;18306;40.960;14.836;2022-09-12T04:02:55;16.10;99.90
31725;DHT22;18306;40.960;14.836;2022-09-12T04:05:23;16.20;99.90
31725;DHT22;18306;40.960;14.836;2022-09-12T04:07:51;16.30;99.90
31725;DHT22;18306;40.960;14.836;2022-09-12T04:10:18;16.30;99.90
31725;DHT22;18306;40.960;14.836;2022-09-12T04:12:45;16.30;99.90
31725;DHT22;18306;40.960;14.836;2022-09-12T04:15:13;16.20;99.90
31725;DHT22;18306;40.960;14.836;2022-09-12T04:17:40;16.00;99.90
31725;DHT22;18306;40.960;14.836;2022-09-12T04:20:07;15.80;99.90
31725;DHT22;18306;40.960;14.836;2022-09-12T04:22:34;15.90;99.90
31725;DHT22;18306;40.960;14.836;2022-09-12T04:25:02;15.80;99.90
31725;DHT22;18306;40.960;14.836;2022-09-12T04:27:29;15.80;99.90
31725;DHT22;18306;40.960;14.836;2022-09-12T04:29:57;15.80;99.90
31725;DHT22;18306;40.960;14.836;2022-09-12T04:32:25;15.60;99.90
31725;DHT22;18306;40.960;14.836;2022-09-12T04:34:52;15.70;99.90
31725;DHT22;18306;40.960;14.836;2022-09-12T04:37:19;15.80;99.90
31725;DHT22;18306;40.960;14.836;2022-09-12T04:39:48;15.70;99.90
31725;DHT22;18306;40.960;14.836;2022-09-12T04:42:15;15.70;99.90
31725;DHT22;18306;40.960;14.836;2022-09-12T04:44:43;15.70;99.90
31725;DHT22;18306;40.960;14.836;2022-09-12T04:47:10;15.50;99.90
31725;DHT22;18306;40.960;14.836;2022-09-12T04:49:37;15.50;99.90
31725;DHT22;18306;40.960;14.836;2022-09-12T04:52:04;15.60;99.90
31725;DHT22;18306;40.960;14.836;2022-09-12T04:54:31;15.50;99.90
31725;DHT22;18306;40.960;14.836;2022-09-12T04:56:59;15.60;99.90
31725;DHT22;18306;40.960;14.836;2022-09-12T04:59:26;15.40;99.90
31725;DHT22;18306;40.960;14.836;2022-09-12T05:01:53;15.40;99.90
31725;DHT22;18306;40.960;14.836;2022-09-12T05:04:21;15.40;99.90
31725;DHT22;18306;40.960;14.836;2022-09-12T05:06:49;15.50;99.90
31725;DHT22;18306;40.960;14.836;2022-09-12T05:09:19;15.60;99.90
31725;DHT22;18306;40.960;14.836;2022-09-12T05:11:46;15.80;99.90
31725;DHT22;18306;40.960;14.836;2022-09-12T05:14:14;15.90;99.90
31725;DHT22;18306;40.960;14.836;2022-09-12T05:17:03;15.80;99.90
31725;DHT22;18306;40.960;14.836;2022-09-12T05:23:43;15.50;99.90
31725;DHT22;18306;40.960;14.836;2022-09-12T05:26:14;15.70;99.90
31725;DHT22;18306;40.960;14.836;2022-09-12T05:28:42;15.60;99.90
31725;DHT22;18306;40.960;14.836;2022-09-12T05:31:27;15.60;99.90
31725;DHT22;18306;40.960;14.836;2022-09-12T05:33:55;15.60;99.90
31725;DHT22;18306;40.960;14.836;2022-09-12T05:36:25;15.70;99.90
31725;DHT22;18306;40.960;14.836;2022-09-12T05:38:53;15.70;99.90
31725;DHT22;18306;40.960;14.836;2022-09-12T05:41:23;15.70;99.90
31725;DHT22;18306;40.960;14.836;2022-09-12T05:43:52;15.80;99.90
31725;DHT22;18306;40.960;14.836;2022-09-12T05:46:22;15.90;99.90
31725;DHT22;18306;40.960;14.836;2022-09-12T05:48:49;15.90;99.90
31725;DHT22;18306;40.960;14.836;2022-09-12T05:51:19;15.90;99.90
31725;DHT22;18306;40.960;14.836;2022-09-12T05:53:52;16.10;99.90
31725;DHT22;18306;40.960;14.836;2022-09-12T05:56:22;16.30;99.90
31725;DHT22;18306;40.960;14.836;2022-09-12T05:59:00;16.40;99.90
31725;DHT22;18306;40.960;14.836;2022-09-12T06:01:29;17.50;99.90
31725;DHT22;18306;40.960;14.836;2022-09-12T06:04:00;20.10;99.90
31725;DHT22;18306;40.960;14.836;2022-09-12T06:06:34;21.70;99.90
31725;DHT22;18306;40.960;14.836;2022-09-12T06:09:03;22.40;99.90
31725;DHT22;18306;40.960;14.836;2022-09-12T06:11:32;22.70;99.90
31725;DHT22;18306;40.960;14.836;2022-09-12T06:14:00;22.80;99.90
31725;DHT22;18306;40.960;14.836;2022-09-12T06:16:29;23.00;99.90
31725;DHT22;18306;40.960;14.836;2022-09-12T06:18:59;23.00;99.90
31725;DHT22;18306;40.960;14.836;2022-09-12T06:21:27;22.90;99.90
31725;DHT22;18306;40.960;14.836;2022-09-12T06:23:58;21.60;99.90
31725;DHT22;18306;40.960;14.836;2022-09-12T06:26:25;20.40;99.90
31725;DHT22;18306;40.960;14.836;2022-09-12T06:28:54;19.80;99.90
31725;DHT22;18306;40.960;14.836;2022-09-12T06:31:26;19.70;99.90
31725;DHT22;18306;40.960;14.836;2022-09-12T06:33:55;19.70;99.90
31725;DHT22;18306;40.960;14.836;2022-09-12T06:36:26;19.60;99.90
31725;DHT22;18306;40.960;14.836;2022-09-12T06:38:54;19.70;99.90
31725;DHT22;18306;40.960;14.836;2022-09-12T06:41:24;19.90;99.90
31725;DHT22;18306;40.960;14.836;2022-09-12T06:43:51;20.00;99.90
31725;DHT22;18306;40.960;14.836;2022-09-12T06:46:19;20.20;99.90
31725;DHT22;18306;40.960;14.836;2022-09-12T06:48:47;20.40;99.90
31725;DHT22;18306;40.960;14.836;2022-09-12T06:51:16;20.50;99.90
31725;DHT22;18306;40.960;14.836;2022-09-12T06:53:44;20.60;99.90
31725;DHT22;18306;40.960;14.836;2022-09-12T06:56:15;20.70;99.90
31725;DHT22;18306;40.960;14.836;2022-09-12T06:58:43;20.80;99.90
31725;DHT22;18306;40.960;14.836;2022-09-12T07:03:49;20.90;99.90
31725;DHT22;18306;40.960;14.836;2022-09-12T07:06:19;21.20;99.90
31725;DHT22;18306;40.960;14.836;2022-09-12T07:08:47;21.20;99.90
31725;DHT22;18306;40.960;14.836;2022-09-12T07:11:18;21.50;99.90
31725;DHT22;18306;40.960;14.836;2022-09-12T07:13:50;21.60;99.90
31725;DHT22;18306;40.960;14.836;2022-09-12T07:16:17;21.70;99.90
31725;DHT22;18306;40.960;14.836;2022-09-12T07:18:49;21.80;99.90
31725;DHT22;18306;40.960;14.836;2022-09-12T07:21:17;21.90;99.90
31725;DHT22;18306;40.960;14.836;2022-09-12T07:23:44;21.90;99.90
31725;DHT22;18306;40.960;14.836;2022-09-12T07:26:14;22.00;99.90
31725;DHT22;18306;40.960;14.836;2022-09-12T07:28:42;22.30;99.90
31725;DHT22;18306;40.960;14.836;2022-09-12T07:31:12;22.60;99.90
31725;DHT22;18306;40.960;14.836;2022-09-12T07:33:41;23.30;99.90
31725;DHT22;18306;40.960;14.836;2022-09-12T07:36:13;24.20;99.90
31725;DHT22;18306;40.960;14.836;2022-09-12T07:38:41;24.80;99.90
31725;DHT22;18306;40.960;14.836;2022-09-12T07:41:11;24.40;99.90
31725;DHT22;18306;40.960;14.836;2022-09-12T07:43:38;24.30;99.90
31725;DHT22;18306;40.960;14.836;2022-09-12T07:46:06;24.90;99.90
31725;DHT22;18306;40.960;14.836;2022-09-12T07:48:53;24.80;99.90
31725;DHT22;18306;40.960;14.836;2022-09-12T07:51:22;24.60;99.90
31725;DHT22;18306;40.960;14.836;2022-09-12T07:53:52;25.00;99.90
31725;DHT22;18306;40.960;14.836;2022-09-12T07:56:24;25.00;99.90
31725;DHT22;18306;40.960;14.836;2022-09-12T07:59:11;24.80;99.90
31725;DHT22;18306;40.960;14.836;2022-09-12T08:01:39;25.90;99.90
31725;DHT22;18306;40.960;14.836;2022-09-12T08:04:07;25.10;99.90
31725;DHT22;18306;40.960;14.836;2022-09-12T08:06:34;24.60;99.90
31725;DHT22;18306;40.960;14.836;2022-09-12T08:09:03;24.10;99.90
31725;DHT22;18306;40.960;14.836;2022-09-12T08:11:31;23.80;99.90
31725;DHT22;18306;40.960;14.836;2022-09-12T08:13:58;23.80;99.90
31725;DHT22;18306;40.960;14.836;2022-09-12T08:16:28;23.90;99.90
31725;DHT22;18306;40.960;14.836;2022-09-12T08:18:59;23.60;99.90
31725;DHT22;18306;40.960;14.836;2022-09-12T08:21:28;23.60;99.90
31725;DHT22;18306;40.960;14.836;2022-09-12T08:24:11;23.70;99.90
31725;DHT22;18306;40.960;14.836;2022-09-12T08:26:38;23.80;99.90
31725;DHT22;18306;40.960;14.836;2022-09-12T08:29:05;23.70;99.90
31725;DHT22;18306;40.960;14.836;2022-09-12T08:31:32;23.80;99.90
31725;DHT22;18306;40.960;14.836;2022-09-12T08:34:04;23.80;99.90
31725;DHT22;18306;40.960;14.836;2022-09-12T08:36:32;23.70;99.90
31725;DHT22;18306;40.960;14.836;2022-09-12T08:39:02;23.80;99.90
31725;DHT22;18306;40.960;14.836;2022-09-12T08:41:57;23.80;99.90
31725;DHT22;18306;40.960;14.836;2022-09-12T08:44:48;23.80;99.90
31725;DHT22;18306;40.960;14.836;2022-09-12T08:47:45;23.90;99.90
31725;DHT22;18306;40.960;14.836;2022-09-12T08:50:16;23.90;99.90
31725;DHT22;18306;40.960;14.836;2022-09-12T08:52:58;24.00;99.90
31725;DHT22;18306;40.960;14.836;2022-09-12T08:55:35;23.90;99.90
31725;DHT22;18306;40.960;14.836;2022-09-12T08:58:23;23.80;99.90
31725;DHT22;18306;40.960;14.836;2022-09-12T09:07:13;24.20;99.90
31725;DHT22;18306;40.960;14.836;2022-09-12T09:09:55;24.10;99.90
31725;DHT22;18306;40.960;14.836;2022-09-12T09:12:34;24.20;99.90
31725;DHT22;18306;40.960;14.836;2022-09-12T09:15:12;24.20;99.90
31725;DHT22;18306;40.960;14.836;2022-09-12T09:17:43;24.30;99.90
31725;DHT22;18306;40.960;14.836;2022-09-12T09:20:55;24.20;99.90
31725;DHT22;18306;40.960;14.836;2022-09-12T09:23:37;24.30;99.90
31725;DHT22;18306;40.960;14.836;2022-09-12T09:26:14;24.40;99.90
31725;DHT22;18306;40.960;14.836;2022-09-12T09:31:54;24.50;99.90
31725;DHT22;18306;40.960;14.836;2022-09-12T09:34:28;24.50;99.90
31725;DHT22;18306;40.960;14.836;2022-09-12T09:39:37;24.80;99.90
31725;DHT22;18306;40.960;14.836;2022-09-12T09:44:53;24.80;99.90
31725;DHT22;18306;40.960;14.836;2022-09-12T09:47:22;24.90;99.90
31725;DHT22;18306;40.960;14.836;2022-09-12T09:49:49;25.00;99.90
31725;DHT22;18306;40.960;14.836;2022-09-12T09:52:24;25.00;99.90
31725;DHT22;18306;40.960;14.836;2022-09-12T09:54:59;24.80;99.90
31725;DHT22;18306;40.960;14.836;2022-09-12T10:00:30;25.00;99.90
31725;DHT22;18306;40.960;14.836;2022-09-12T10:08:19;25.20;99.90
31725;DHT22;18306;40.960;14.836;2022-09-12T10:10:55;25.30;99.90
31725;DHT22;18306;40.960;14.836;2022-09-12T10:13:57;25.00;99.90
31725;DHT22;18306;40.960;14.836;2022-09-12T10:16:47;25.10;99.90
31725;DHT22;18306;40.960;14.836;2022-09-12T10:19:21;25.40;99.90
31725;DHT22;18306;40.960;14.836;2022-09-12T10:21:55;25.30;99.90
31725;DHT22;18306;40.960;14.836;2022-09-12T10:24:36;25.40;99.90
31725;DHT22;18306;40.960;14.836;2022-09-12T10:27:20;25.30;99.90
31725;DHT22;18306;40.960;14.836;2022-09-12T10:30:05;25.10;99.90
31725;DHT22;18306;40.960;14.836;2022-09-12T10:32:40;25.10;99.90
31725;DHT22;18306;40.960;14.836;2022-09-12T10:35:19;25.10;99.90
31725;DHT22;18306;40.960;14.836;2022-09-12T10:40:26;25.60;99.90
31725;DHT22;18306;40.960;14.836;2022-09-12T10:42:56;25.60;99.90
31725;DHT22;18306;40.960;14.836;2022-09-12T10:45:31;25.60;99.90
31725;DHT22;18306;40.960;14.836;2022-09-12T10:48:20;25.80;99.90
31725;DHT22;18306;40.960;14.836;2022-09-12T10:50:48;25.60;99.40
31725;DHT22;18306;40.960;14.836;2022-09-12T10:53:21;25.60;99.90
31725;DHT22;18306;40.960;14.836;2022-09-12T10:56:18;25.80;99.90
31725;DHT22;18306;40.960;14.836;2022-09-12T10:59:16;25.70;99.90
31725;DHT22;18306;40.960;14.836;2022-09-12T11:10:13;26.00;98.00
31725;DHT22;18306;40.960;14.836;2022-09-12T11:13:18;26.20;98.90
31725;DHT22;18306;40.960;14.836;2022-09-12T11:16:15;26.40;97.60
31725;DHT22;18306;40.960;14.836;2022-09-12T11:36:02;26.30;96.10
31725;DHT22;18306;40.960;14.836;2022-09-12T11:41:23;26.30;95.10
31725;DHT22;18306;40.960;14.836;2022-09-12T11:43:56;26.40;96.50
31725;DHT22;18306;40.960;14.836;2022-09-12T11:46:38;26.50;95.40
31725;DHT22;18306;40.960;14.836;2022-09-12T11:52:03;26.30;96.60
31725;DHT22;18306;40.960;14.836;2022-09-12T11:54:39;26.40;96.30
31725;DHT22;18306;40.960;14.836;2022-09-12T11:57:24;26.40;95.80
31725;DHT22;18306;40.960;14.836;2022-09-12T12:00:13;26.30;93.70
31725;DHT22;18306;40.960;14.836;2022-09-12T12:05:39;26.30;94.10
31725;DHT22;18306;40.960;14.836;2022-09-12T12:08:11;26.60;94.50
31725;DHT22;18306;40.960;14.836;2022-09-12T12:10:47;26.70;91.90
31725;DHT22;18306;40.960;14.836;2022-09-12T12:16:29;26.70;92.80
31725;DHT22;18306;40.960;14.836;2022-09-12T12:19:35;26.60;92.10
31725;DHT22;18306;40.960;14.836;2022-09-12T12:22:23;26.40;95.20
31725;DHT22;18306;40.960;14.836;2022-09-12T12:24:57;26.60;92.40
31725;DHT22;18306;40.960;14.836;2022-09-12T12:27:54;26.80;91.00
31725;DHT22;18306;40.960;14.836;2022-09-12T12:35:43;26.70;94.10
31725;DHT22;18306;40.960;14.836;2022-09-12T12:38:32;26.90;93.00
31725;DHT22;18306;40.960;14.836;2022-09-12T12:43:49;27.00;94.00
31725;DHT22;18306;40.960;14.836;2022-09-12T12:46:22;26.80;92.90
31725;DHT22;18306;40.960;14.836;2022-09-12T12:49:04;26.30;91.30
31725;DHT22;18306;40.960;14.836;2022-09-12T12:51:42;26.10;92.40
31725;DHT22;18306;40.960;14.836;2022-09-12T12:54:31;26.10;90.80
31725;DHT22;18306;40.960;14.836;2022-09-12T12:57:04;26.10;91.60
31725;DHT22;18306;40.960;14.836;2022-09-12T12:59:33;26.40;92.00
31725;DHT22;18306;40.960;14.836;2022-09-12T13:02:00;26.60;93.40
31725;DHT22;18306;40.960;14.836;2022-09-12T13:04:29;26.60;90.90
31725;DHT22;18306;40.960;14.836;2022-09-12T13:07:36;26.70;90.50
31725;DHT22;18306;40.960;14.836;2022-09-12T13:10:18;26.80;90.00
31725;DHT22;18306;40.960;14.836;2022-09-12T13:12:49;26.80;90.80
31725;DHT22;18306;40.960;14.836;2022-09-12T13:18:11;26.70;91.00
31725;DHT22;18306;40.960;14.836;2022-09-12T13:23:30;26.80;92.80
31725;DHT22;18306;40.960;14.836;2022-09-12T13:26:02;26.80;93.00
31725;DHT22;18306;40.960;14.836;2022-09-12T13:28:31;27.00;92.30
31725;DHT22;18306;40.960;14.836;2022-09-12T13:31:24;27.30;90.60
31725;DHT22;18306;40.960;14.836;2022-09-12T13:33:56;27.30;91.10
31725;DHT22;18306;40.960;14.836;2022-09-12T13:36:33;27.40;91.20
31725;DHT22;18306;40.960;14.836;2022-09-12T13:39:19;27.30;91.80
31725;DHT22;18306;40.960;14.836;2022-09-12T13:47:35;26.90;90.00
31725;DHT22;18306;40.960;14.836;2022-09-12T13:50:06;27.00;90.60
31725;DHT22;18306;40.960;14.836;2022-09-12T13:52:36;27.00;91.50
31725;DHT22;18306;40.960;14.836;2022-09-12T13:55:21;26.90;92.00
31725;DHT22;18306;40.960;14.836;2022-09-12T13:58:00;27.20;90.60
31725;DHT22;18306;40.960;14.836;2022-09-12T14:00:30;27.10;90.00
31725;DHT22;18306;40.960;14.836;2022-09-12T14:02:59;26.90;90.50
31725;DHT22;18306;40.960;14.836;2022-09-12T14:05:54;27.00;90.50
31725;DHT22;18306;40.960;14.836;2022-09-12T14:08:26;27.00;90.10
31725;DHT22;18306;40.960;14.836;2022-09-12T14:10:53;27.00;90.50
31725;DHT22;18306;40.960;14.836;2022-09-12T14:13:32;26.90;90.30
31725;DHT22;18306;40.960;14.836;2022-09-12T14:16:00;26.90;90.40
31725;DHT22;18306;40.960;14.836;2022-09-12T14:18:30;26.90;90.30
31725;DHT22;18306;40.960;14.836;2022-09-12T14:21:08;26.70;91.40
31725;DHT22;18306;40.960;14.836;2022-09-12T14:23:44;26.40;91.80
31725;DHT22;18306;40.960;14.836;2022-09-12T14:26:16;26.30;93.90
31725;DHT22;18306;40.960;14.836;2022-09-12T14:28:45;26.20;92.20
31725;DHT22;18306;40.960;14.836;2022-09-12T14:31:24;26.00;93.00
31725;DHT22;18306;40.960;14.836;2022-09-12T14:34:09;26.20;91.40
31725;DHT22;18306;40.960;14.836;2022-09-12T14:36:52;26.40;91.30
31725;DHT22;18306;40.960;14.836;2022-09-12T14:39:23;26.50;92.30
31725;DHT22;18306;40.960;14.836;2022-09-12T14:42:06;26.50;90.90
31725;DHT22;18306;40.960;14.836;2022-09-12T14:44:55;26.50;92.00
31725;DHT22;18306;40.960;14.836;2022-09-12T14:47:26;26.40;90.80
31725;DHT22;18306;40.960;14.836;2022-09-12T14:49:59;26.50;91.00
31725;DHT22;18306;40.960;14.836;2022-09-12T14:52:29;26.40;91.00
31725;DHT22;18306;40.960;14.836;2022-09-12T14:57:38;26.40;90.40
31725;DHT22;18306;40.960;14.836;2022-09-12T15:02:43;26.40;90.50
31725;DHT22;18306;40.960;14.836;2022-09-12T15:05:14;26.50;90.00
31725;DHT22;18306;40.960;14.836;2022-09-12T15:07:51;26.40;90.10
31725;DHT22;18306;40.960;14.836;2022-09-12T15:10:29;26.50;90.30
31725;DHT22;18306;40.960;14.836;2022-09-12T15:15:40;26.50;88.70
31725;DHT22;18306;40.960;14.836;2022-09-12T15:18:09;26.40;88.40
31725;DHT22;18306;40.960;14.836;2022-09-12T15:20:40;26.50;87.40
31725;DHT22;18306;40.960;14.836;2022-09-12T15:23:26;26.50;87.80
31725;DHT22;18306;40.960;14.836;2022-09-12T15:25:56;26.40;87.00
31725;DHT22;18306;40.960;14.836;2022-09-12T15:28:28;26.40;87.30
31725;DHT22;18306;40.960;14.836;2022-09-12T15:30:57;26.20;91.20
31725;DHT22;18306;40.960;14.836;2022-09-12T15:33:26;26.00;90.30
31725;DHT22;18306;40.960;14.836;2022-09-12T15:35:55;26.00;91.60
31725;DHT22;18306;40.960;14.836;2022-09-12T15:38:31;25.90;91.90
31725;DHT22;18306;40.960;14.836;2022-09-12T15:40:58;26.10;90.80
31725;DHT22;18306;40.960;14.836;2022-09-12T15:43:26;26.30;91.40
31725;DHT22;18306;40.960;14.836;2022-09-12T15:45:55;26.30;91.40
31725;DHT22;18306;40.960;14.836;2022-09-12T15:48:22;26.30;91.20
31725;DHT22;18306;40.960;14.836;2022-09-12T15:50:50;26.20;91.40
31725;DHT22;18306;40.960;14.836;2022-09-12T15:53:17;26.20;91.40
31725;DHT22;18306;40.960;14.836;2022-09-12T15:55:44;26.20;92.40
31725;DHT22;18306;40.960;14.836;2022-09-12T15:58:12;26.30;90.70
31725;DHT22;18306;40.960;14.836;2022-09-12T16:00:39;26.10;90.90
31725;DHT22;18306;40.960;14.836;2022-09-12T16:03:21;26.10;90.90
31725;DHT22;18306;40.960;14.836;2022-09-12T16:05:51;26.10;91.10
31725;DHT22;18306;40.960;14.836;2022-09-12T16:08:21;26.00;91.10
31725;DHT22;18306;40.960;14.836;2022-09-12T16:10:56;25.90;91.60
31725;DHT22;18306;40.960;14.836;2022-09-12T16:13:24;25.90;91.50
31725;DHT22;18306;40.960;14.836;2022-09-12T16:15:58;25.80;91.60
31725;DHT22;18306;40.960;14.836;2022-09-12T16:18:26;25.70;92.10
31725;DHT22;18306;40.960;14.836;2022-09-12T16:20:55;25.70;92.20
31725;DHT22;18306;40.960;14.836;2022-09-12T16:23:23;25.70;92.10
31725;DHT22;18306;40.960;14.836;2022-09-12T16:26:04;25.60;93.30
31725;DHT22;18306;40.960;14.836;2022-09-12T16:28:32;25.50;92.80
31725;DHT22;18306;40.960;14.836;2022-09-12T16:31:02;25.40;93.20
31725;DHT22;18306;40.960;14.836;2022-09-12T16:33:30;25.20;93.60
31725;DHT22;18306;40.960;14.836;2022-09-12T16:36:07;25.10;96.40
31725;DHT22;18306;40.960;14.836;2022-09-12T16:38:42;24.90;95.20
31725;DHT22;18306;40.960;14.836;2022-09-12T16:41:10;24.80;97.80
31725;DHT22;18306;40.960;14.836;2022-09-12T16:43:37;24.60;97.20
31725;DHT22;18306;40.960;14.836;2022-09-12T16:46:10;24.50;97.70
31725;DHT22;18306;40.960;14.836;2022-09-12T16:48:47;24.40;98.80
31725;DHT22;18306;40.960;14.836;2022-09-12T16:51:16;24.20;99.10
31725;DHT22;18306;40.960;14.836;2022-09-12T16:53:47;24.00;99.90
31725;DHT22;18306;40.960;14.836;2022-09-12T16:56:15;23.90;99.90
31725;DHT22;18306;40.960;14.836;2022-09-12T16:58:42;23.70;99.90
31725;DHT22;18306;40.960;14.836;2022-09-12T17:01:15;23.60;99.90
31725;DHT22;18306;40.960;14.836;2022-09-12T17:03:43;23.60;99.90
31725;DHT22;18306;40.960;14.836;2022-09-12T17:06:15;23.40;99.90
31725;DHT22;18306;40.960;14.836;2022-09-12T17:08:50;23.30;99.90
31725;DHT22;18306;40.960;14.836;2022-09-12T17:11:20;23.30;99.90
31725;DHT22;18306;40.960;14.836;2022-09-12T17:13:50;23.20;99.90
31725;DHT22;18306;40.960;14.836;2022-09-12T17:16:17;23.10;99.90
31725;DHT22;18306;40.960;14.836;2022-09-12T17:22:25;23.10;99.90
31725;DHT22;18306;40.960;14.836;2022-09-12T17:25:56;23.00;99.90
31725;DHT22;18306;40.960;14.836;2022-09-12T17:28:24;22.80;99.90
31725;DHT22;18306;40.960;14.836;2022-09-12T17:30:58;22.60;99.90
31725;DHT22;18306;40.960;14.836;2022-09-12T17:33:27;22.60;99.90
31725;DHT22;18306;40.960;14.836;2022-09-12T17:35:59;22.40;99.90
31725;DHT22;18306;40.960;14.836;2022-09-12T17:38:33;22.30;99.90
31725;DHT22;18306;40.960;14.836;2022-09-12T17:41:06;22.20;99.90
31725;DHT22;18306;40.960;14.836;2022-09-12T17:43:36;22.10;99.90
31725;DHT22;18306;40.960;14.836;2022-09-12T17:46:06;22.10;99.90
31725;DHT22;18306;40.960;14.836;2022-09-12T17:48:34;21.90;99.90
31725;DHT22;18306;40.960;14.836;2022-09-12T17:51:08;21.90;99.90
31725;DHT22;18306;40.960;14.836;2022-09-12T17:53:36;21.90;99.90
31725;DHT22;18306;40.960;14.836;2022-09-12T17:56:05;22.00;99.90
31725;DHT22;18306;40.960;14.836;2022-09-12T17:58:33;21.80;99.90
31725;DHT22;18306;40.960;14.836;2022-09-12T18:01:11;21.70;99.90
31725;DHT22;18306;40.960;14.836;2022-09-12T18:03:59;21.60;99.90
31725;DHT22;18306;40.960;14.836;2022-09-12T18:06:31;21.60;99.90
31725;DHT22;18306;40.960;14.836;2022-09-12T18:09:04;21.20;99.90
31725;DHT22;18306;40.960;14.836;2022-09-12T18:11:33;21.20;99.90
31725;DHT22;18306;40.960;14.836;2022-09-12T18:14:00;21.20;99.90
31725;DHT22;18306;40.960;14.836;2022-09-12T18:16:28;21.10;99.90
31725;DHT22;18306;40.960;14.836;2022-09-12T18:19:03;21.00;99.90